Time;durP1;ratioP1;P1;durP2;ratioP2;P2;SDS_P1;SDS_P2;PMS_P1;PMS_P2;Temp;Humidity;BMP_temperature;BMP_pressure;BME280_temperature;BME280_humidity;BME280_pressure;Samples;Min_cycle;Max_cycle;Signal;HPM_P1;HPM_P2
2021/09/07 00:00:32;;;;;;;13.77;10.40;;;;;;;14.66;100.00;101598.38;5003659;28;20566;-78
2021/09/07 00:02:59;;;;;;;15.57;11.32;;;;;;;14.72;100.00;101595.59;4993208;28;20116;-77
2021/09/07 00:05:26;;;;;;;15.35;10.70;;;;;;;14.72;100.00;101594.72;4993088;28;20042;-78
2021/09/07 00:07:52;;;;;;;14.15;10.05;;;;;;;14.69;100.00;101589.44;4998000;28;20037;-77
2021/09/07 00:10:19;;;;;;;15.05;11.77;;;;;;;14.63;100.00;101594.03;4989169;28;20076;-78
2021/09/07 00:12:46;;;;;;;14.40;10.90;;;;;;;14.63;100.00;101590.50;5014994;28;20117;-78
2021/09/07 00:15:15;;;;;;;15.77;10.43;;;;;;;14.58;100.00;101582.59;5014131;28;20042;-77
2021/09/07 00:17:41;;;;;;;13.13;10.07;;;;;;;14.59;100.00;101580.81;5010881;28;20045;-77
2021/09/07 00:20:09;;;;;;;16.58;10.82;;;;;;;14.59;100.00;101583.47;4997408;28;20060;-77
2021/09/07 00:22:36;;;;;;;13.05;10.38;;;;;;;14.48;100.00;101581.06;5014416;28;20057;-79
2021/09/07 00:25:04;;;;;;;13.57;10.07;;;;;;;14.49;100.00;101576.63;5013046;28;20046;-77
2021/09/07 00:27:31;;;;;;;14.85;10.73;;;;;;;14.44;100.00;101574.00;5010488;28;20049;-77
2021/09/07 00:29:58;;;;;;;16.80;10.18;;;;;;;14.32;100.00;101574.28;4991196;28;20413;-79
2021/09/07 00:32:25;;;;;;;12.55;9.77;;;;;;;14.29;100.00;101572.56;5014353;28;20415;-78
2021/09/07 00:34:52;;;;;;;13.45;10.88;;;;;;;14.23;100.00;101570.03;5109761;22;20040;-82
2021/09/07 00:37:18;;;;;;;13.95;9.63;;;;;;;14.14;100.00;101575.56;5035180;28;20040;-85
2021/09/07 00:39:45;;;;;;;12.82;9.45;;;;;;;14.13;100.00;101570.28;5038590;28;20050;-82
2021/09/07 00:42:14;;;;;;;12.38;9.80;;;;;;;14.07;100.00;101572.13;5022195;28;20404;-82
2021/09/07 00:44:41;;;;;;;12.50;9.48;;;;;;;13.97;100.00;101573.22;5032407;28;20127;-81
2021/09/07 00:47:08;;;;;;;12.50;9.57;;;;;;;13.93;100.00;101570.66;5038373;28;20362;-82
2021/09/07 00:49:38;;;;;;;14.52;10.55;;;;;;;13.93;100.00;101571.53;5055792;28;20110;-81
2021/09/07 00:52:05;;;;;;;11.70;9.05;;;;;;;13.91;100.00;101580.44;5038337;28;20056;-80
2021/09/07 00:54:35;;;;;;;14.25;9.32;;;;;;;13.79;100.00;101574.47;5046678;28;20040;-81
2021/09/07 00:57:07;;;;;;;13.30;9.43;;;;;;;13.74;100.00;101578.09;5037581;28;20041;-82
2021/09/07 00:59:35;;;;;;;10.32;9.05;;;;;;;13.66;100.00;101578.25;5038841;28;20040;-82
2021/09/07 01:02:03;;;;;;;11.73;9.20;;;;;;;13.65;100.00;101583.59;5056860;28;20052;-81
2021/09/07 01:04:33;;;;;;;11.50;8.90;;;;;;;13.63;100.00;101582.75;5043637;28;20043;-81
2021/09/07 01:07:01;;;;;;;12.27;9.40;;;;;;;13.58;100.00;101572.19;5061665;28;20044;-82
2021/09/07 01:09:28;;;;;;;14.43;9.23;;;;;;;13.56;100.00;101579.34;5041771;28;20040;-81
2021/09/07 01:11:55;;;;;;;11.07;8.55;;;;;;;13.45;100.00;101578.63;5047763;28;20059;-82
2021/09/07 01:14:36;;;;;;;15.40;9.43;;;;;;;13.37;100.00;101581.44;5033808;28;20048;-81
2021/09/07 01:17:03;;;;;;;13.75;9.40;;;;;;;13.37;100.00;101577.88;5047570;28;20047;-83
2021/09/07 01:19:30;;;;;;;12.75;9.52;;;;;;;13.33;100.00;101579.72;5029965;28;20089;-81
2021/09/07 01:21:57;;;;;;;11.35;8.93;;;;;;;13.23;100.00;101591.41;5039887;28;20053;-81
2021/09/07 01:24:25;;;;;;;13.80;10.27;;;;;;;13.20;100.00;101586.13;5022574;28;20402;-82
2021/09/07 01:26:52;;;;;;;12.77;9.70;;;;;;;13.27;100.00;101585.13;5044089;28;20044;-80
2021/09/07 01:29:19;;;;;;;13.55;9.73;;;;;;;13.22;100.00;101585.22;5047842;28;20050;-83
2021/09/07 01:31:50;;;;;;;15.98;10.18;;;;;;;13.17;100.00;101594.13;5019471;28;20044;-81
2021/09/07 01:34:21;;;;;;;13.75;9.57;;;;;;;13.13;100.00;101588.00;5037217;28;20123;-81
2021/09/07 01:36:48;;;;;;;14.23;9.68;;;;;;;13.01;100.00;101593.47;5026264;28;20423;-82
2021/09/07 01:39:15;;;;;;;15.38;10.00;;;;;;;13.00;100.00;101585.56;5045872;28;20121;-81
2021/09/07 01:41:43;;;;;;;14.90;10.27;;;;;;;12.96;100.00;101585.63;5033710;28;20040;-81
2021/09/07 01:44:09;;;;;;;11.88;9.02;;;;;;;12.94;100.00;101582.09;5062614;28;20108;-82
2021/09/07 01:46:37;;;;;;;12.60;9.48;;;;;;;12.89;100.00;101585.72;5042497;28;20055;-82
2021/09/07 01:49:09;;;;;;;15.38;9.85;;;;;;;12.85;100.00;101576.03;5046331;28;20067;-81
2021/09/07 01:51:39;;;;;;;15.45;10.05;;;;;;;12.79;100.00;101585.00;5047844;28;20108;-81
2021/09/07 01:54:06;;;;;;;15.40;9.75;;;;;;;12.73;100.00;101584.19;5035750;28;20045;-81
2021/09/07 01:56:33;;;;;;;13.35;9.27;;;;;;;12.70;100.00;101582.47;5036312;28;20044;-82
2021/09/07 01:59:00;;;;;;;14.15;9.75;;;;;;;12.66;100.00;101573.69;5033742;28;20048;-82
2021/09/07 02:01:26;;;;;;;13.75;10.10;;;;;;;12.65;100.00;101585.19;5030391;28;20094;-83
2021/09/07 02:03:54;;;;;;;11.35;8.57;;;;;;;12.61;100.00;101580.84;5042221;28;20079;-83
2021/09/07 02:06:20;;;;;;;13.90;10.00;;;;;;;12.57;100.00;101586.19;5031887;28;20552;-83
2021/09/07 02:08:47;;;;;;;11.38;8.88;;;;;;;12.56;100.00;101582.66;5035119;28;20485;-83
2021/09/07 02:11:14;;;;;;;12.73;8.85;;;;;;;12.51;100.00;101581.84;5034093;28;20048;-83
2021/09/07 02:13:41;;;;;;;12.75;9.10;;;;;;;12.47;100.00;101579.28;5037068;28;20513;-81
2021/09/07 02:16:07;;;;;;;15.43;9.38;;;;;;;12.51;100.00;101573.00;5016735;28;20250;-82
2021/09/07 02:18:34;;;;;;;14.02;9.70;;;;;;;12.44;100.00;101577.50;5044961;28;20499;-83
2021/09/07 02:21:01;;;;;;;13.98;9.52;;;;;;;12.41;100.00;101582.88;5047380;28;20045;-82
2021/09/07 02:23:27;;;;;;;13.38;10.50;;;;;;;12.40;100.00;101579.34;5033933;28;20036;-82
2021/09/07 02:25:54;;;;;;;13.60;9.98;;;;;;;12.38;100.00;101586.44;5015309;28;20497;-83
2021/09/07 02:28:21;;;;;;;12.63;9.45;;;;;;;12.34;100.00;101586.50;5018396;28;20102;-82
2021/09/07 02:30:47;;;;;;;15.93;10.77;;;;;;;12.23;100.00;101583.97;5023573;28;20424;-81
2021/09/07 02:33:14;;;;;;;14.00;10.88;;;;;;;12.23;100.00;101581.34;5034406;28;20127;-82
2021/09/07 02:35:41;;;;;;;15.82;10.88;;;;;;;12.20;100.00;101584.03;5022371;28;20060;-82
2021/09/07 02:38:08;;;;;;;13.65;10.25;;;;;;;12.15;100.00;101582.31;5022043;28;20037;-81
2021/09/07 02:40:34;;;;;;;13.43;9.10;;;;;;;12.17;100.00;101586.69;5051263;28;20040;-82
2021/09/07 02:43:02;;;;;;;11.57;9.38;;;;;;;12.11;100.00;101587.66;5049670;28;20624;-82
2021/09/07 02:45:28;;;;;;;14.55;9.85;;;;;;;12.06;100.00;101585.97;5032151;28;20044;-82
2021/09/07 02:47:55;;;;;;;12.02;9.38;;;;;;;12.02;100.00;101586.88;5031452;28;20047;-81
2021/09/07 02:50:22;;;;;;;12.82;8.77;;;;;;;11.96;100.00;101582.56;5036314;28;20044;-80
2021/09/07 02:52:49;;;;;;;11.30;9.13;;;;;;;11.94;100.00;101580.78;5035338;28;20048;-83
2021/09/07 02:55:16;;;;;;;13.93;9.32;;;;;;;11.92;100.00;101578.16;5052363;28;20047;-83
2021/09/07 02:57:42;;;;;;;12.35;9.10;;;;;;;11.86;100.00;101574.72;5031328;28;20073;-84
2021/09/07 03:00:09;;;;;;;14.68;9.77;;;;;;;11.87;100.00;101571.19;5024789;28;20096;-83
2021/09/07 03:02:36;;;;;;;19.88;10.02;;;;;;;11.84;100.00;101582.66;5051998;28;20513;-85
2021/09/07 03:05:04;;;;;;;15.20;10.20;;;;;;;11.72;100.00;101573.06;5035318;28;20539;-83
2021/09/07 03:07:31;;;;;;;11.65;9.23;;;;;;;11.73;100.00;101568.66;5034829;28;20126;-81
2021/09/07 03:09:58;;;;;;;12.15;9.23;;;;;;;11.67;100.00;101569.56;5031481;28;20045;-81
2021/09/07 03:12:24;;;;;;;14.55;9.25;;;;;;;11.66;100.00;101575.78;5050821;28;20041;-86
2021/09/07 03:14:54;;;;;;;12.60;9.32;;;;;;;11.62;100.00;101574.06;5032095;28;20040;-83
2021/09/07 03:17:20;;;;;;;13.80;9.43;;;;;;;11.61;100.00;101574.09;5050547;28;20037;-81
2021/09/07 03:19:47;;;;;;;14.23;9.65;;;;;;;11.56;100.00;101576.75;5056706;28;20036;-84
2021/09/07 03:22:13;;;;;;;11.52;8.48;;;;;;;11.50;100.00;101579.47;5030713;28;20045;-80
2021/09/07 03:24:40;;;;;;;14.20;9.40;;;;;;;11.47;100.00;101575.09;5031873;28;20428;-80
2021/09/07 03:27:07;;;;;;;12.68;9.00;;;;;;;11.50;100.00;101579.47;5030818;28;20135;-81
2021/09/07 03:29:33;;;;;;;12.70;9.48;;;;;;;11.48;100.00;101575.97;5020150;28;20098;-81
2021/09/07 03:32:01;;;;;;;11.90;9.27;;;;;;;11.44;100.00;101571.59;5052501;28;20049;-80
2021/09/07 03:34:28;;;;;;;14.02;9.43;;;;;;;11.43;100.00;101578.63;5025799;28;20094;-83
2021/09/07 03:36:54;;;;;;;13.88;9.68;;;;;;;11.36;100.00;101565.50;5037747;28;20041;-81
2021/09/07 03:39:21;;;;;;;13.73;9.45;;;;;;;11.38;100.00;101580.47;5025514;28;20437;-80
2021/09/07 03:41:48;;;;;;;12.88;10.52;;;;;;;11.27;100.00;101577.03;5044276;28;20647;-81
2021/09/07 03:44:14;;;;;;;13.18;8.75;;;;;;;11.26;100.00;101583.19;5049187;28;20563;-80
2021/09/07 03:46:42;;;;;;;11.73;8.27;;;;;;;11.21;100.00;101593.84;5054983;28;20124;-81
2021/09/07 03:49:09;;;;;;;15.25;9.88;;;;;;;11.21;100.00;101591.19;5040679;28;20045;-81
2021/09/07 03:51:36;;;;;;;11.93;8.93;;;;;;;11.18;100.00;101593.88;5051185;28;20029;-80
2021/09/07 03:54:02;;;;;;;14.05;9.40;;;;;;;11.12;100.00;101593.03;5049086;28;20045;-81
2021/09/07 03:56:30;;;;;;;13.45;9.30;;;;;;;11.09;100.00;101598.31;5048551;28;20076;-81
2021/09/07 03:58:57;;;;;;;13.40;9.45;;;;;;;11.16;100.00;101594.75;5034355;28;20041;-82
2021/09/07 04:01:23;;;;;;;12.05;8.90;;;;;;;11.11;100.00;101602.75;5020001;28;20040;-82
2021/09/07 04:03:50;;;;;;;11.57;8.98;;;;;;;11.08;100.00;101597.44;5054836;28;20041;-81
2021/09/07 04:06:17;;;;;;;12.88;8.68;;;;;;;11.09;100.00;101600.97;5047682;28;20067;-81
2021/09/07 04:08:44;;;;;;;16.70;9.68;;;;;;;11.01;100.00;101598.38;5040740;28;20041;-80
2021/09/07 04:11:10;;;;;;;14.13;9.93;;;;;;;11.02;100.00;101602.81;5041052;28;20447;-82
2021/09/07 04:13:37;;;;;;;13.98;9.70;;;;;;;11.02;100.00;101596.66;5053763;28;20405;-81
2021/09/07 04:16:04;;;;;;;15.07;8.98;;;;;;;10.99;100.00;101601.03;5035890;28;20048;-81
2021/09/07 04:18:31;;;;;;;10.95;8.60;;;;;;;10.93;100.00;101605.50;5050599;28;20048;-82
2021/09/07 04:20:57;;;;;;;12.68;9.27;;;;;;;10.94;100.00;101604.63;5055063;28;20048;-82
2021/09/07 04:23:24;;;;;;;13.98;9.50;;;;;;;10.91;100.00;101612.56;5023752;28;20044;-82
2021/09/07 04:25:53;;;;;;;14.95;9.52;;;;;;;10.88;100.00;101613.47;5024661;28;20074;-82
2021/09/07 04:28:20;;;;;;;11.13;8.82;;;;;;;10.89;100.00;101609.94;5024168;28;20037;-82
2021/09/07 04:30:47;;;;;;;11.65;9.10;;;;;;;10.91;100.00;101612.56;5054943;28;20516;-82
2021/09/07 04:33:14;;;;;;;12.07;9.75;;;;;;;10.88;100.00;101607.31;5026478;28;20068;-81
2021/09/07 04:35:40;;;;;;;13.18;9.70;;;;;;;10.86;100.00;101606.44;5024153;28;20539;-80
2021/09/07 04:38:07;;;;;;;11.20;7.63;;;;;;;10.86;100.00;101606.44;5041915;28;20431;-82
2021/09/07 04:40:34;;;;;;;12.07;8.80;;;;;;;10.83;100.00;101601.16;5023955;28;20059;-81
2021/09/07 04:43:00;;;;;;;12.02;8.13;;;;;;;10.88;100.00;101610.81;5041417;28;20045;-82
2021/09/07 04:45:28;;;;;;;12.07;8.10;;;;;;;10.85;100.00;101608.22;5023303;28;20036;-81
2021/09/07 04:47:54;;;;;;;15.68;9.15;;;;;;;10.89;100.00;101617.00;5036664;28;20041;-82
2021/09/07 04:50:21;;;;;;;11.98;9.23;;;;;;;10.91;100.00;101618.72;5035235;28;20544;-82
2021/09/07 04:52:48;;;;;;;12.80;8.52;;;;;;;10.87;100.00;101624.06;5035884;28;20040;-82
2021/09/07 04:55:14;;;;;;;14.73;10.77;;;;;;;10.86;100.00;101623.19;5036215;28;20039;-82
2021/09/07 04:57:41;;;;;;;11.18;8.90;;;;;;;10.92;100.00;101630.19;5056038;28;20041;-82
2021/09/07 05:00:08;;;;;;;10.90;8.82;;;;;;;10.90;100.00;101632.84;5039924;28;20094;-81
2021/09/07 05:02:36;;;;;;;15.48;10.65;;;;;;;10.93;100.00;101637.22;5033065;28;20033;-82
2021/09/07 05:05:05;;;;;;;13.95;9.80;;;;;;;10.93;100.00;101645.16;5022056;28;20055;-81
2021/09/07 05:07:32;;;;;;;13.35;9.93;;;;;;;10.96;100.00;101642.50;5055403;28;20044;-81
2021/09/07 05:09:59;;;;;;;12.10;9.18;;;;;;;11.03;100.00;101644.22;5020664;28;20036;-81
2021/09/07 05:12:27;;;;;;;15.05;9.38;;;;;;;11.11;100.00;101642.41;5034903;28;20045;-81
2021/09/07 05:14:54;;;;;;;12.48;9.65;;;;;;;11.13;100.00;101643.28;5032917;28;20052;-81
2021/09/07 05:17:21;;;;;;;13.90;9.38;;;;;;;11.22;100.00;101639.69;5054618;28;20446;-82
2021/09/07 05:19:48;;;;;;;13.18;9.57;;;;;;;11.34;100.00;101646.63;5026992;28;20036;-82
2021/09/07 05:22:14;;;;;;;12.00;8.88;;;;;;;11.42;100.00;101644.81;5055083;28;20053;-80
2021/09/07 05:24:41;;;;;;;14.93;9.13;;;;;;;11.49;100.00;101647.38;5036180;28;20049;-81
2021/09/07 05:27:08;;;;;;;12.40;9.75;;;;;;;11.63;100.00;101659.63;5045135;28;20040;-81
2021/09/07 05:29:34;;;;;;;14.48;10.48;;;;;;;11.81;100.00;101646.25;5054992;28;20056;-82
2021/09/07 05:32:01;;;;;;;11.30;9.63;;;;;;;11.97;100.00;101652.28;5045747;28;20048;-81
2021/09/07 05:34:30;;;;;;;14.20;9.02;;;;;;;12.08;100.00;101656.56;5042054;28;20087;-81
2021/09/07 05:36:57;;;;;;;11.48;9.18;;;;;;;12.16;100.00;101642.34;5053976;28;20044;-81
2021/09/07 05:39:24;;;;;;;12.25;9.73;;;;;;;12.26;100.00;101642.22;5037463;28;20090;-81
2021/09/07 05:41:51;;;;;;;12.82;9.52;;;;;;;12.41;100.00;101643.81;5035760;28;20102;-82
2021/09/07 05:44:19;;;;;;;13.50;9.55;;;;;;;12.53;100.00;101638.38;5033267;28;20048;-82
2021/09/07 05:46:46;;;;;;;14.70;10.00;;;;;;;12.68;100.00;101643.47;5039128;28;20037;-81
2021/09/07 05:49:13;;;;;;;12.52;9.75;;;;;;;12.80;100.00;101642.44;5036890;28;20060;-82
2021/09/07 05:51:41;;;;;;;19.30;10.70;;;;;;;12.86;100.00;101650.31;5039549;28;20432;-82
2021/09/07 05:54:08;;;;;;;15.82;11.48;;;;;;;12.92;100.00;101644.91;5039836;28;20037;-82
2021/09/07 05:56:35;;;;;;;14.38;10.77;;;;;;;13.07;100.00;101648.22;5056635;28;20040;-82
2021/09/07 05:59:05;;;;;;;15.20;11.15;;;;;;;13.18;100.00;101651.59;5072615;28;20033;-82
2021/09/07 06:01:31;;;;;;;14.57;10.73;;;;;;;13.29;100.00;101646.16;5057190;28;20047;-82
2021/09/07 06:03:58;;;;;;;15.02;10.35;;;;;;;13.40;100.00;101647.75;5039392;28;20041;-82
2021/09/07 06:06:25;;;;;;;14.32;11.02;;;;;;;13.52;100.00;101644.88;5056327;28;20051;-83
2021/09/07 06:08:52;;;;;;;17.75;11.65;;;;;;;13.56;100.00;101639.53;5032804;28;20049;-82
2021/09/07 06:11:18;;;;;;;14.27;10.30;;;;;;;13.66;100.00;101639.31;5024949;28;20060;-83
2021/09/07 06:13:45;;;;;;;16.50;12.15;;;;;;;13.78;100.00;101639.09;5053301;28;20086;-83
2021/09/07 06:16:11;;;;;;;18.00;12.27;;;;;;;13.90;100.00;101640.66;5038746;28;20126;-82
2021/09/07 06:18:38;;;;;;;15.45;10.95;;;;;;;14.03;100.00;101639.50;5057803;28;20039;-82
2021/09/07 06:21:05;;;;;;;13.57;10.30;;;;;;;14.04;100.00;101643.03;5058785;28;20070;-82
2021/09/07 06:23:32;;;;;;;15.23;11.57;;;;;;;14.14;100.00;101639.34;5076076;28;20036;-84
2021/09/07 06:25:59;;;;;;;18.17;11.05;;;;;;;14.25;100.00;101639.97;5060333;28;20079;-82
2021/09/07 06:28:26;;;;;;;14.75;10.30;;;;;;;14.29;100.00;101643.44;5025575;28;20527;-82
2021/09/07 06:30:53;;;;;;;14.77;9.93;;;;;;;14.38;100.00;101645.94;5039401;28;20041;-83
2021/09/07 06:33:21;;;;;;;16.52;11.48;;;;;;;14.44;100.00;101645.78;5041123;28;20110;-82
2021/09/07 06:35:48;;;;;;;14.38;9.95;;;;;;;14.50;100.00;101653.69;5039359;23;20050;-79
2021/09/07 06:38:15;;;;;;;12.85;9.45;;;;;;;14.52;100.00;101665.16;5013205;28;20107;-81
2021/09/07 06:40:41;;;;;;;18.17;10.57;;;;;;;14.68;100.00;101664.84;5015620;28;20045;-82
2021/09/07 06:43:08;;;;;;;15.25;9.95;;;;;;;14.58;100.00;101664.16;5029318;28;20041;-80
2021/09/07 06:45:35;;;;;;;14.50;9.32;;;;;;;14.60;100.00;101663.22;4983420;28;20048;-81
2021/09/07 06:48:01;;;;;;;16.67;11.80;;;;;;;14.60;100.00;101670.31;5018324;28;20099;-79
2021/09/07 06:50:28;;;;;;;16.42;10.52;;;;;;;14.61;100.00;101669.41;5002093;28;20042;-79
2021/09/07 06:52:57;;;;;;;14.25;11.00;;;;;;;14.66;100.00;101671.97;5031253;28;20499;-83
2021/09/07 06:55:23;;;;;;;15.70;11.38;;;;;;;14.70;100.00;101673.66;5001228;28;20042;-81
2021/09/07 06:57:50;;;;;;;19.05;11.05;;;;;;;14.76;100.00;101669.09;5000458;28;20120;-78
2021/09/07 07:00:17;;;;;;;17.95;11.35;;;;;;;14.78;100.00;101677.03;4999193;28;20045;-76
2021/09/07 07:02:44;;;;;;;16.33;10.35;;;;;;;14.76;100.00;101676.19;5016674;28;20037;-76
2021/09/07 07:05:11;;;;;;;15.52;11.02;;;;;;;14.86;100.00;101673.28;4982406;28;20116;-80
2021/09/07 07:07:38;;;;;;;17.33;10.65;;;;;;;14.97;100.00;101678.41;5013546;28;20041;-80
2021/09/07 07:10:05;;;;;;;15.45;10.25;;;;;;;15.04;100.00;101679.97;4998483;28;20075;-82
2021/09/07 07:12:32;;;;;;;14.73;10.27;;;;;;;15.05;100.00;101679.09;4996173;28;20055;-81
2021/09/07 07:14:58;;;;;;;15.63;10.27;;;;;;;15.05;100.00;101681.75;4978873;28;20554;-80
2021/09/07 07:17:25;;;;;;;18.27;11.40;;;;;;;15.25;100.00;101677.75;5015473;28;20044;-78
2021/09/07 07:19:52;;;;;;;16.13;11.68;;;;;;;15.20;100.00;101686.72;5001243;28;20473;-81
2021/09/07 07:22:20;;;;;;;14.85;9.55;;;;;;;15.18;100.00;101685.88;4973697;28;20107;-80
2021/09/07 07:24:47;;;;;;;17.90;12.40;;;;;;;15.31;100.00;101688.25;5020289;28;20041;-82
2021/09/07 07:27:14;;;;;;;16.45;11.75;;;;;;;14.97;100.00;101688.16;5016423;28;20054;-82
2021/09/07 07:29:40;;;;;;;16.23;10.60;;;;;;;15.09;100.00;101688.75;5001205;28;20526;-81
2021/09/07 07:32:07;;;;;;;19.98;11.48;;;;;;;15.34;100.00;101688.19;5015834;28;20064;-79
2021/09/07 07:34:34;;;;;;;16.35;11.20;;;;;;;15.37;100.00;101691.63;5013986;28;20495;-79
2021/09/07 07:37:05;;;;;;;19.85;11.20;;;;;;;15.44;100.00;101700.34;5016191;28;20049;-80
2021/09/07 07:39:32;;;;;;;18.38;11.25;;;;;;;15.60;100.00;101693.75;4985097;28;20029;-76
2021/09/07 07:41:59;;;;;;;15.60;11.88;;;;;;;15.69;100.00;101696.22;4982747;28;20115;-80
2021/09/07 07:44:26;;;;;;;15.88;10.75;;;;;;;15.80;100.00;101703.06;4999627;28;20033;-79
2021/09/07 07:46:53;;;;;;;17.13;10.23;;;;;;;15.91;100.00;101699.22;5014668;28;20042;-80
2021/09/07 07:49:20;;;;;;;19.98;11.82;;;;;;;16.08;100.00;101698.78;4999038;28;20046;-80
2021/09/07 07:51:46;;;;;;;16.17;10.50;;;;;;;16.12;100.00;101704.88;4996629;28;20045;-81
2021/09/07 07:54:13;;;;;;;17.60;10.88;;;;;;;16.19;100.00;101703.81;5013072;28;20046;-80
2021/09/07 07:56:40;;;;;;;15.43;10.23;;;;;;;16.30;100.00;101710.59;5000171;28;20522;-79
2021/09/07 07:59:07;;;;;;;15.45;9.88;;;;;;;16.43;100.00;101703.13;4983580;28;20064;-81
2021/09/07 08:01:33;;;;;;;16.75;10.68;;;;;;;16.51;100.00;101708.25;5016311;28;20038;-77
2021/09/07 08:04:01;;;;;;;30.23;21.65;;;;;;;16.66;100.00;101710.50;5012113;28;20052;-79
2021/09/07 08:06:28;;;;;;;16.52;9.98;;;;;;;16.74;99.39;101711.19;5001186;28;20603;-77
2021/09/07 08:08:55;;;;;;;16.67;10.70;;;;;;;16.88;100.00;101716.09;5015283;28;20054;-76
2021/09/07 08:11:21;;;;;;;12.65;9.20;;;;;;;16.98;98.03;101716.69;4998572;28;20038;-79
2021/09/07 08:13:50;;;;;;;19.10;10.70;;;;;;;17.10;96.41;101709.19;4984985;28;20045;-78
2021/09/07 08:16:18;;;;;;;18.15;13.10;;;;;;;17.07;95.67;101717.31;4998732;28;20056;-81
2021/09/07 08:18:48;;;;;;;16.10;11.23;;;;;;;17.22;95.55;101712.38;4999515;28;20064;-79
2021/09/07 08:21:15;;;;;;;16.48;10.15;;;;;;;17.39;92.97;101716.28;5012741;28;20045;-79
2021/09/07 08:23:41;;;;;;;20.73;14.55;;;;;;;17.20;93.21;101709.78;4999169;28;20402;-81
2021/09/07 08:26:08;;;;;;;17.52;12.10;;;;;;;17.24;91.61;101718.56;5002178;28;20044;-79
2021/09/07 08:28:35;;;;;;;17.08;10.48;;;;;;;17.31;94.41;101722.78;5025975;28;20402;-77
2021/09/07 08:31:02;;;;;;;17.33;11.30;;;;;;;17.43;94.36;101720.59;5004600;28;20577;-81
2021/09/07 08:33:29;;;;;;;26.40;17.80;;;;;;;17.46;94.41;101732.97;5002533;28;20080;-79
2021/09/07 08:35:55;;;;;;;17.77;12.15;;;;;;;17.47;94.38;101723.16;4983577;28;20684;-80
2021/09/07 08:38:24;;;;;;;13.02;9.82;;;;;;;17.61;92.26;101732.50;5000665;28;20046;-81
2021/09/07 08:40:53;;;;;;;14.27;9.98;;;;;;;17.68;88.89;101733.16;4987599;28;20629;-78
2021/09/07 08:43:26;;;;;;;13.75;9.35;;;;;;;17.54;88.43;101735.41;4987777;28;20128;-79
2021/09/07 08:45:54;;;;;;;11.25;7.63;;;;;;;17.41;91.60;101738.50;4997540;28;20056;-80
2021/09/07 08:48:22;;;;;;;15.13;9.23;;;;;;;17.33;90.10;101736.97;4999315;28;20064;-79
2021/09/07 08:50:49;;;;;;;17.30;9.15;;;;;;;17.37;90.80;101734.16;5020835;28;20045;-79
2021/09/07 08:53:28;;;;;;;13.73;8.18;;;;;;;17.22;92.25;101739.97;5004230;28;20045;-80
2021/09/07 08:55:55;;;;;;;12.40;8.85;;;;;;;17.28;93.59;101739.78;4994469;28;20057;-78
2021/09/07 08:58:23;;;;;;;17.13;9.80;;;;;;;17.45;93.30;101742.78;4983956;28;20641;-78
2021/09/07 09:00:49;;;;;;;16.50;10.18;;;;;;;17.52;89.33;101743.47;5035285;28;20053;-79
2021/09/07 09:03:18;;;;;;;14.05;10.10;;;;;;;17.52;91.53;101746.16;5034778;28;20041;-79
2021/09/07 09:05:48;;;;;;;13.80;9.70;;;;;;;17.62;90.85;101744.06;5016883;28;20380;-78
2021/09/07 09:08:16;;;;;;;15.48;9.20;;;;;;;17.38;92.78;101746.56;4996497;28;20041;-81
2021/09/07 09:10:45;;;;;;;14.95;11.00;;;;;;;17.57;91.03;101743.31;5002729;28;20105;-79
2021/09/07 09:13:15;;;;;;;14.35;9.93;;;;;;;17.65;92.27;101746.63;5035492;28;20053;-78
2021/09/07 09:16:05;;;;;;;10.93;8.05;;;;;;;17.72;91.24;101748.19;5016899;28;20092;-79
2021/09/07 09:18:34;;;;;;;12.10;8.13;;;;;;;17.86;92.45;101747.75;5014962;28;20048;-80
2021/09/07 09:21:23;;;;;;;11.80;8.27;;;;;;;17.98;88.83;101748.19;5004218;28;20052;-78
2021/09/07 09:24:12;;;;;;;14.88;8.60;;;;;;;18.14;88.86;101751.22;5002897;28;20037;-79
2021/09/07 09:26:55;;;;;;;12.38;9.15;;;;;;;18.29;85.63;101750.69;5021473;28;20045;-80
2021/09/07 09:29:26;;;;;;;10.50;8.27;;;;;;;18.39;87.36;101747.69;5002316;28;20091;-79
2021/09/07 09:31:58;;;;;;;10.60;7.93;;;;;;;18.42;87.21;101744.94;5000401;28;20104;-81
2021/09/07 09:34:26;;;;;;;14.10;10.60;;;;;;;18.73;88.27;101744.69;4986463;28;20246;-78
2021/09/07 09:37:01;;;;;;;12.00;8.70;;;;;;;19.01;83.07;101739.19;4999566;28;20050;-79
2021/09/07 09:39:42;;;;;;;11.15;9.23;;;;;;;19.34;82.10;101737.88;5003500;28;20072;-80
2021/09/07 09:42:26;;;;;;;14.13;10.07;;;;;;;19.71;81.39;101732.84;4989446;28;20120;-79
2021/09/07 09:45:01;;;;;;;13.77;8.38;;;;;;;19.71;81.25;101731.03;5005699;28;20068;-79
2021/09/07 09:47:33;;;;;;;9.43;7.47;;;;;;;20.05;78.47;101729.63;5012223;28;20110;-80
2021/09/07 09:50:03;;;;;;;11.80;9.15;;;;;;;20.11;70.65;101722.19;5010801;28;20417;-81
2021/09/07 09:52:34;;;;;;;9.93;7.40;;;;;;;20.17;71.60;101731.75;5013677;28;20052;-81
2021/09/07 09:55:01;;;;;;;11.00;8.73;;;;;;;19.58;72.38;101727.97;5000558;28;20060;-81
2021/09/07 09:57:28;;;;;;;16.52;14.43;;;;;;;19.53;71.36;101729.97;5013301;28;20037;-80
2021/09/07 09:59:54;;;;;;;10.60;7.75;;;;;;;19.60;70.50;101730.63;5015405;28;20414;-82
2021/09/07 10:02:24;;;;;;;10.73;7.75;;;;;;;19.96;72.21;101729.06;5014719;28;20072;-79
2021/09/07 10:04:51;;;;;;;13.73;9.43;;;;;;;20.39;66.36;101726.34;5015031;28;20491;-80
2021/09/07 10:07:18;;;;;;;11.90;9.77;;;;;;;20.39;65.58;101731.69;4999882;28;20556;-78
2021/09/07 10:09:45;;;;;;;10.57;8.38;;;;;;;20.74;67.42;101720.28;5002483;28;20042;-82
2021/09/07 10:12:24;;;;;;;11.63;8.13;;;;;;;20.98;65.64;101726.31;5004426;28;20080;-78
2021/09/07 10:15:04;;;;;;;9.32;7.45;;;;;;;21.05;66.00;101730.47;5000489;28;20056;-79
2021/09/07 10:20:35;;;;;;;11.68;7.95;;;;;;;21.23;62.73;101726.03;5001184;28;20045;-80
2021/09/07 10:23:09;;;;;;;11.35;8.73;;;;;;;20.96;60.35;101721.97;5004385;28;20106;-80
2021/09/07 10:25:56;;;;;;;10.30;8.00;;;;;;;21.21;61.17;101722.56;5000646;28;20421;-79
2021/09/07 10:28:37;;;;;;;9.00;6.85;;;;;;;21.42;60.65;101720.66;5033280;28;20045;-83
2021/09/07 10:31:08;;;;;;;22.83;9.80;;;;;;;21.46;59.79;101716.03;5015946;28;20121;-80
2021/09/07 10:33:56;;;;;;;14.98;8.88;;;;;;;20.78;61.08;101713.84;5010533;28;20033;-80
2021/09/07 10:36:27;;;;;;;13.10;8.75;;;;;;;21.19;61.46;101723.56;5036092;28;20083;-79
2021/09/07 10:38:56;;;;;;;10.05;7.72;;;;;;;21.06;61.17;101724.16;5017195;28;20041;-80
2021/09/07 10:41:29;;;;;;;11.93;9.00;;;;;;;20.65;60.52;101711.78;5000373;28;20033;-79
2021/09/07 10:44:09;;;;;;;11.40;7.70;;;;;;;20.66;59.90;101714.38;5016478;28;20079;-81
2021/09/07 10:46:55;;;;;;;12.40;8.23;;;;;;;20.65;58.81;101704.59;5000082;28;20052;-79
2021/09/07 10:49:33;;;;;;;9.15;7.75;;;;;;;20.71;58.51;101709.69;5027978;28;20068;-80
2021/09/07 10:52:25;;;;;;;11.40;8.15;;;;;;;20.74;60.03;101706.84;5016423;28;20517;-81
2021/09/07 10:54:52;;;;;;;9.77;7.22;;;;;;;21.24;60.05;101706.28;5035774;28;20106;-80
2021/09/07 10:57:38;;;;;;;12.00;7.53;;;;;;;21.70;59.68;101708.56;5033538;28;20037;-79
2021/09/07 11:00:14;;;;;;;9.95;7.32;;;;;;;21.84;57.89;101714.97;5013737;28;20045;-80
2021/09/07 11:03:02;;;;;;;8.75;6.95;;;;;;;21.78;57.66;101711.75;4998836;28;20041;-77
2021/09/07 11:05:29;;;;;;;10.23;7.35;;;;;;;21.47;57.37;101712.38;5001684;28;20045;-80
2021/09/07 11:08:05;;;;;;;9.60;6.75;;;;;;;21.30;58.29;101711.38;5017203;28;20045;-80
2021/09/07 11:10:34;;;;;;;14.35;7.65;;;;;;;21.40;58.95;101708.25;5010319;28;20056;-79
2021/09/07 11:13:03;;;;;;;10.30;7.15;;;;;;;21.58;60.06;101712.72;5015941;28;20033;-80
2021/09/07 11:15:32;;;;;;;8.95;7.40;;;;;;;21.77;59.18;101707.28;5016886;28;20033;-79
2021/09/07 11:18:09;;;;;;;11.25;8.15;;;;;;;21.96;58.44;101704.53;4999291;28;20076;-81